Terminal Aerodrome Forecast
Issued by NWS

Home | Current Version | Previous Version | Text Only | Print | Product List | Glossary On
Versions: 1 2 3 4 5 6 7 8 9 10 11 12 13 14 15 16 17 18
000
FTUS43 KEAX 021027 AAC
TAFMKC
TAF AMD
KMKC 021027Z 0210/0306 32005KT P6SM SCT015 BKN035
      TEMPO 0210/0212 BKN015
     FM021400 34006KT P6SM OVC030
     FM021800 35006KT P6SM VCSH OVC035
     FM022200 35006KT P6SM BKN060=

USA.gov is the U.S. government's official web portal to all federal, state and local government web resources and services.